Time;durP1;ratioP1;P1;durP2;ratioP2;P2;SDS_P1;SDS_P2;PMS_P1;PMS_P2;Temp;Humidity;BMP_temperature;BMP_pressure;BME280_temperature;BME280_humidity;BME280_pressure;Samples;Min_cycle;Max_cycle;Signal;HPM_P1;HPM_P2
2023/12/09 00:01:53;;;;;;;76.90;36.47;;;3.70;99.90;;;2.53;100.00;100537.13;5073601;28;20233;-71
2023/12/09 00:04:23;;;;;;;83.63;38.43;;;3.70;99.90;;;2.58;100.00;100533.31;5077484;28;20288;-71
2023/12/09 00:06:51;;;;;;;67.57;35.27;;;3.80;99.90;;;2.59;100.00;100530.56;5077266;28;20237;-71
2023/12/09 00:09:19;;;;;;;73.17;36.13;;;3.80;99.90;;;2.61;100.00;100535.72;5077353;28;20296;-71
2023/12/09 00:11:47;;;;;;;76.20;36.70;;;3.80;99.90;;;2.62;100.00;100532.13;5077261;28;20218;-71
2023/12/09 00:14:16;;;;;;;77.07;36.80;;;3.90;99.90;;;2.64;100.00;100533.69;5077200;28;20208;-71
2023/12/09 00:16:44;;;;;;;68.40;35.67;;;3.80;99.90;;;2.65;100.00;100523.97;5077196;28;20241;-71
2023/12/09 00:19:13;;;;;;;68.30;36.43;;;3.80;99.90;;;2.66;100.00;100530.94;5076882;28;20625;-71
2023/12/09 00:21:42;;;;;;;75.67;35.13;;;3.80;99.90;;;2.66;100.00;100525.66;5076748;28;20374;-71
2023/12/09 00:24:10;;;;;;;71.17;33.23;;;4.00;99.90;;;2.65;100.00;100529.25;5077038;28;20227;-71
2023/12/09 00:26:39;;;;;;;67.43;32.83;;;3.80;99.90;;;2.65;100.00;100527.44;5077015;28;20240;-71
2023/12/09 00:29:07;;;;;;;67.50;34.00;;;3.80;99.90;;;2.63;100.00;100520.59;5076916;28;20205;-71
2023/12/09 00:31:35;;;;;;;74.23;32.33;;;3.80;99.90;;;2.63;100.00;100533.81;5076835;28;20301;-71
2023/12/09 00:34:03;;;;;;;63.13;32.30;;;3.80;99.90;;;2.62;100.00;100540.91;5076538;28;20225;-71
2023/12/09 00:36:31;;;;;;;69.60;34.20;;;3.80;99.90;;;2.65;100.00;100539.81;5076687;28;20209;-71
2023/12/09 00:39:01;;;;;;;60.53;32.57;;;3.90;99.90;;;2.63;100.00;100542.59;5077053;28;20216;-71
2023/12/09 00:41:29;;;;;;;56.23;30.40;;;4.00;99.90;;;2.59;100.00;100537.63;5076624;28;20232;-71
2023/12/09 00:43:57;;;;;;;59.53;30.33;;;3.80;99.90;;;2.57;100.00;100536.94;5076651;28;20263;-71
2023/12/09 00:46:25;;;;;;;56.30;29.60;;;3.80;99.90;;;2.53;100.00;100537.13;5076370;28;20674;-71
2023/12/09 00:48:54;;;;;;;47.60;26.87;;;3.70;99.90;;;2.52;100.00;100529.31;5076591;28;20628;-71
2023/12/09 00:51:22;;;;;;;53.13;27.00;;;3.70;99.90;;;2.50;100.00;100529.44;5076434;28;20208;-71
2023/12/09 00:53:50;;;;;;;46.93;26.80;;;3.70;99.90;;;2.49;100.00;100535.69;5076231;28;20208;-71
2023/12/09 00:56:20;;;;;;;54.37;29.07;;;3.70;99.90;;;2.48;100.00;100533.16;5076432;28;20213;-71
2023/12/09 00:59:02;;;;;;;51.97;27.10;;;3.80;99.90;;;2.48;100.00;100535.78;5076473;28;20199;-71
2023/12/09 01:01:33;;;;;;;48.83;27.10;;;3.60;99.90;;;2.45;100.00;100531.59;5076314;28;20275;-71
2023/12/09 01:04:02;;;;;;;54.33;27.87;;;3.80;99.90;;;2.45;100.00;100539.50;5076344;28;20186;-71
2023/12/09 01:06:31;;;;;;;48.53;27.13;;;3.60;99.90;;;2.45;100.00;100538.66;5076313;28;20224;-71
2023/12/09 01:08:59;;;;;;;47.87;27.10;;;3.60;99.90;;;2.44;100.00;100537.81;5076208;28;20244;-71
2023/12/09 01:11:29;;;;;;;47.67;27.17;;;3.70;99.90;;;2.46;100.00;100543.00;5076132;28;20202;-71
2023/12/09 01:13:57;;;;;;;46.27;26.30;;;3.70;99.90;;;2.44;100.00;100540.47;5074739;28;20709;-71
2023/12/09 01:16:25;;;;;;;37.33;24.17;;;3.60;99.90;;;2.45;100.00;100531.59;5076121;28;20240;-71
2023/12/09 01:18:53;;;;;;;43.17;26.00;;;3.60;99.90;;;2.44;100.00;100527.25;5076078;28;20248;-71
2023/12/09 01:21:22;;;;;;;40.77;24.07;;;3.60;99.90;;;2.45;100.00;100522.81;5075573;28;20660;-71
2023/12/09 01:23:50;;;;;;;42.03;24.60;;;3.60;99.90;;;2.45;100.00;100517.53;5075989;28;20227;-71
2023/12/09 01:26:18;;;;;;;44.43;24.13;;;3.60;99.90;;;2.45;100.00;100528.94;5075932;28;20254;-71
2023/12/09 01:28:48;;;;;;;43.70;24.63;;;3.60;99.90;;;2.46;100.00;100532.44;5075890;28;20209;-71
2023/12/09 01:31:16;;;;;;;44.63;24.03;;;3.60;99.90;;;2.44;100.00;100532.53;5075917;28;20575;-71
2023/12/09 01:33:44;;;;;;;43.67;24.57;;;3.60;99.90;;;2.44;100.00;100542.25;5075278;28;20237;-71
2023/12/09 01:36:13;;;;;;;37.83;23.07;;;3.60;99.90;;;2.41;100.00;100548.63;5075806;28;20201;-71
2023/12/09 01:38:41;;;;;;;36.07;21.60;;;3.50;99.90;;;2.40;100.00;100541.63;5075700;28;20295;-71
2023/12/09 01:41:09;;;;;;;41.67;23.80;;;3.50;99.90;;;2.38;100.00;100543.56;5075557;28;20233;-71
2023/12/09 01:43:37;;;;;;;36.00;22.27;;;3.50;99.90;;;2.38;100.00;100534.78;5075603;28;20316;-71
2023/12/09 01:46:11;;;;;;;33.43;21.57;;;3.50;99.90;;;2.37;100.00;100543.66;5075644;28;20299;-71
2023/12/09 01:48:39;;;;;;;41.47;23.93;;;3.50;99.90;;;2.35;100.00;100543.78;5075561;28;20282;-71
2023/12/09 01:51:08;;;;;;;43.10;22.83;;;3.60;99.90;;;2.34;100.00;100547.38;5075435;28;20209;-71
2023/12/09 01:53:38;;;;;;;39.60;24.10;;;3.50;99.90;;;2.32;100.00;100549.31;5075345;28;20237;-71
2023/12/09 01:56:11;;;;;;;38.90;23.23;;;3.50;99.90;;;2.34;100.00;100549.16;5075413;28;20296;-71
2023/12/09 01:58:39;;;;;;;38.07;23.00;;;3.50;99.90;;;2.34;100.00;100550.03;5075324;28;20272;-71
2023/12/09 02:01:10;;;;;;;36.80;23.27;;;3.50;99.90;;;2.34;100.00;100551.81;5074880;28;20620;-71
2023/12/09 02:03:39;;;;;;;36.67;22.43;;;3.50;99.90;;;2.33;100.00;100545.69;5075139;28;20229;-71
2023/12/09 02:06:07;;;;;;;34.37;22.37;;;3.50;99.90;;;2.33;100.00;100550.97;5074846;28;20679;-71
2023/12/09 02:08:36;;;;;;;37.10;21.37;;;3.50;99.90;;;2.34;100.00;100541.25;5075124;28;20304;-71
2023/12/09 02:11:20;;;;;;;40.73;24.17;;;3.40;99.90;;;2.33;100.00;100543.03;5075086;28;20229;-71
2023/12/09 02:13:59;;;;;;;34.17;21.97;;;3.50;99.90;;;2.33;100.00;100548.31;5075034;28;20221;-71
2023/12/09 02:16:44;;;;;;;35.30;23.03;;;3.50;99.90;;;2.34;100.00;100535.97;5074735;28;20761;-71
2023/12/09 02:19:14;;;;;;;37.20;23.00;;;3.50;99.90;;;2.32;100.00;100538.75;5074955;28;20243;-71
2023/12/09 02:22:03;;;;;;;41.50;23.40;;;3.50;99.90;;;2.32;100.00;100533.44;5074725;28;20291;-71
2023/12/09 02:24:33;;;;;;;34.23;21.10;;;3.60;99.90;;;2.32;100.00;100533.44;5074715;28;20201;-71
2023/12/09 02:27:12;;;;;;;34.30;21.50;;;3.40;99.90;;;2.32;100.00;100530.81;5074750;28;20185;-71
2023/12/09 02:29:55;;;;;;;35.73;21.83;;;3.50;99.90;;;2.32;100.00;100538.75;5074814;28;20221;-71
2023/12/09 02:32:30;;;;;;;32.47;21.13;;;3.50;99.90;;;2.32;100.00;100538.75;5074189;28;20602;-71
2023/12/09 02:35:02;;;;;;;33.93;21.23;;;3.50;99.90;;;2.33;100.00;100535.13;5074628;28;20196;-71
2023/12/09 02:37:33;;;;;;;28.70;19.30;;;3.50;99.90;;;2.32;100.00;100540.53;5074574;28;20244;-71
2023/12/09 02:40:09;;;;;;;37.20;23.23;;;3.50;99.90;;;2.32;100.00;100533.44;5074257;28;20702;-71
2023/12/09 02:42:39;;;;;;;35.97;22.50;;;3.40;99.90;;;2.32;100.00;100544.03;5074072;28;20244;-71
2023/12/09 02:45:10;;;;;;;40.30;23.13;;;3.50;99.90;;;2.33;100.00;100545.69;5074456;28;20221;-71
2023/12/09 02:47:39;;;;;;;40.27;22.80;;;3.50;99.90;;;2.35;100.00;100542.94;5074385;28;20189;-71
2023/12/09 02:50:08;;;;;;;41.90;23.73;;;3.50;99.90;;;2.38;100.00;100548.00;5074047;28;20584;-71
2023/12/09 02:52:36;;;;;;;37.20;22.37;;;3.50;99.90;;;2.38;100.00;100548.84;5074233;28;20260;-71
2023/12/09 02:55:07;;;;;;;37.20;22.33;;;3.50;99.90;;;2.38;100.00;100538.28;5074307;28;20209;-71
2023/12/09 02:57:35;;;;;;;35.83;21.67;;;3.50;99.90;;;2.41;100.00;100538.03;5074352;28;20273;-71
2023/12/09 03:00:06;;;;;;;38.90;22.37;;;3.60;99.90;;;2.41;100.00;100527.47;5074121;28;20205;-71
2023/12/09 03:02:35;;;;;;;36.63;22.30;;;3.50;99.90;;;2.41;100.00;100534.56;5073516;28;20655;-71
2023/12/09 03:05:03;;;;;;;31.40;20.90;;;3.60;99.90;;;2.40;100.00;100531.06;5073762;28;20679;-71
2023/12/09 03:07:31;;;;;;;33.40;19.73;;;3.50;99.90;;;2.41;100.00;100531.91;5073944;28;20212;-71
2023/12/09 03:09:59;;;;;;;33.67;20.80;;;3.60;99.90;;;2.42;100.00;100531.81;5073928;28;20213;-71
2023/12/09 03:12:29;;;;;;;31.00;20.33;;;3.50;99.90;;;2.43;100.00;100536.13;5073831;28;20316;-71
2023/12/09 03:14:57;;;;;;;32.87;20.47;;;3.60;99.90;;;2.42;100.00;100530.97;5073877;28;20209;-71
2023/12/09 03:17:26;;;;;;;30.43;19.03;;;3.70;99.90;;;2.43;100.00;100525.56;5073699;28;20702;-71
2023/12/09 03:19:54;;;;;;;32.53;19.93;;;3.70;99.90;;;2.44;100.00;100521.13;5073826;28;20255;-71
2023/12/09 03:22:22;;;;;;;31.47;19.07;;;3.60;99.90;;;2.45;100.00;100523.66;5073563;28;20271;-71
2023/12/09 03:24:50;;;;;;;29.83;18.30;;;3.60;99.90;;;2.46;100.00;100524.50;5073742;28;20259;-71
2023/12/09 03:27:18;;;;;;;27.03;18.00;;;3.60;99.90;;;2.44;100.00;100519.31;5073703;28;20214;-71
2023/12/09 03:29:48;;;;;;;29.77;18.77;;;3.60;99.90;;;2.42;100.00;100513.31;5073715;28;20229;-71
2023/12/09 03:32:16;;;;;;;32.10;18.70;;;3.70;99.90;;;2.44;100.00;100515.84;5073393;28;20332;-71
2023/12/09 03:34:44;;;;;;;32.33;19.67;;;3.50;99.90;;;2.42;100.00;100517.75;5073695;28;20292;-71
2023/12/09 03:37:12;;;;;;;34.67;20.70;;;3.60;99.90;;;2.44;100.00;100515.84;5072648;28;20723;-71
2023/12/09 03:39:40;;;;;;;37.97;21.50;;;3.60;99.90;;;2.46;100.00;100511.28;5073580;28;20205;-71
2023/12/09 03:42:09;;;;;;;33.73;19.47;;;3.60;99.90;;;2.47;100.00;100516.44;5073362;28;20320;-71
2023/12/09 03:44:37;;;;;;;29.37;20.23;;;3.60;99.90;;;2.47;100.00;100505.88;5073522;28;20278;-71
2023/12/09 03:47:07;;;;;;;33.43;19.60;;;3.70;99.90;;;2.46;100.00;100498.94;5073517;28;20207;-71
2023/12/09 03:49:49;;;;;;;29.67;18.10;;;3.60;99.90;;;2.46;100.00;100487.50;5073439;28;20193;-71
2023/12/09 03:52:17;;;;;;;28.53;17.93;;;3.70;99.90;;;2.45;100.00;100481.38;5073067;28;20711;-71
2023/12/09 03:54:46;;;;;;;32.53;19.53;;;3.60;99.90;;;2.45;100.00;100478.75;5073737;28;20205;-71
2023/12/09 03:57:15;;;;;;;27.53;18.57;;;3.60;99.90;;;2.46;100.00;100485.72;5073403;28;20201;-71
2023/12/09 03:59:43;;;;;;;30.27;19.20;;;3.60;99.90;;;2.46;100.00;100484.88;5073382;28;20209;-71
2023/12/09 04:02:14;;;;;;;27.57;17.43;;;3.70;99.90;;;2.45;100.00;100480.53;5072858;28;20320;-71
2023/12/09 04:04:42;;;;;;;26.73;17.97;;;3.60;99.90;;;2.45;100.00;100468.19;5073374;28;20221;-71
2023/12/09 04:07:10;;;;;;;31.60;18.17;;;3.60;99.90;;;2.46;100.00;100461.94;5073364;28;20296;-71
2023/12/09 04:09:38;;;;;;;26.53;17.67;;;3.60;99.90;;;2.44;100.00;100463.84;5073309;28;20300;-71
2023/12/09 04:12:07;;;;;;;27.43;17.30;;;3.70;99.90;;;2.46;100.00;100461.09;5073198;28;20231;-71
2023/12/09 04:14:36;;;;;;;28.63;17.77;;;3.60;99.90;;;2.44;100.00;100453.28;5073210;28;20207;-71
2023/12/09 04:17:04;;;;;;;29.80;17.60;;;3.60;99.90;;;2.44;100.00;100458.56;5073224;28;20208;-71
2023/12/09 04:19:34;;;;;;;29.63;18.40;;;3.60;99.90;;;2.45;100.00;100454.13;5073153;28;20362;-71
2023/12/09 04:22:02;;;;;;;27.23;16.90;;;3.60;99.90;;;2.44;100.00;100458.56;5073080;28;20263;-71
2023/12/09 04:24:31;;;;;;;25.47;15.53;;;3.50;99.90;;;2.44;100.00;100465.63;5072742;28;20225;-71
2023/12/09 04:26:59;;;;;;;28.43;17.53;;;3.60;99.90;;;2.44;100.00;100463.84;5073135;28;20290;-71
2023/12/09 04:29:27;;;;;;;29.80;17.17;;;3.60;99.90;;;2.43;100.00;100456.84;5073042;28;20205;-71
2023/12/09 04:31:56;;;;;;;25.37;16.03;;;3.60;99.90;;;2.44;100.00;100463.84;5072766;28;20264;-71
2023/12/09 04:34:26;;;;;;;29.87;16.60;;;3.50;99.90;;;2.44;100.00;100463.84;5073069;28;20185;-71
2023/12/09 04:36:56;;;;;;;23.53;15.63;;;3.60;99.90;;;2.43;100.00;100456.84;5073038;28;20206;-71
2023/12/09 04:39:24;;;;;;;23.40;16.27;;;3.60;99.90;;;2.44;100.00;100466.47;5073023;28;20251;-72
2023/12/09 04:41:53;;;;;;;24.53;15.13;;;3.60;99.90;;;2.43;100.00;100467.44;5072870;28;20226;-72
2023/12/09 04:44:23;;;;;;;27.83;16.27;;;3.60;99.90;;;2.46;100.00;100463.72;5072598;28;20228;-72
2023/12/09 04:46:51;;;;;;;26.30;15.27;;;3.60;99.90;;;2.46;100.00;100456.66;5072902;28;20213;-72
2023/12/09 04:49:19;;;;;;;24.67;16.07;;;3.60;99.90;;;2.48;100.00;100449.44;5075528;28;20212;-72
2023/12/09 04:51:47;;;;;;;24.67;15.83;;;3.60;99.90;;;2.53;100.00;100457.84;5076242;28;20722;-72
2023/12/09 04:54:17;;;;;;;27.00;15.93;;;3.70;99.90;;;2.59;100.00;100450.44;5076208;28;20205;-72
2023/12/09 04:56:45;;;;;;;30.40;16.40;;;3.70;99.90;;;2.64;100.00;100448.28;5076147;28;20667;-72
2023/12/09 04:59:13;;;;;;;25.97;15.40;;;3.80;99.90;;;2.61;100.00;100448.50;5076440;28;20240;-72
2023/12/09 05:01:42;;;;;;;22.47;14.67;;;3.80;99.90;;;2.60;100.00;100452.13;5076001;28;20737;-72
2023/12/09 05:04:10;;;;;;;25.03;15.10;;;3.80;99.90;;;2.69;100.00;100446.13;5075992;28;20703;-72
2023/12/09 05:06:39;;;;;;;26.73;15.23;;;3.90;99.90;;;2.63;100.00;100446.59;5076933;28;20212;-72
2023/12/09 05:09:08;;;;;;;24.63;15.47;;;3.80;99.90;;;2.64;100.00;100450.94;5076280;28;20216;-72
2023/12/09 05:11:38;;;;;;;24.53;15.30;;;4.00;99.90;;;2.61;100.00;100446.69;5076164;28;20205;-71
2023/12/09 05:14:06;;;;;;;27.10;15.20;;;3.80;99.90;;;2.60;100.00;100445.03;5076488;28;20279;-71
2023/12/09 05:16:35;;;;;;;24.20;15.23;;;3.80;99.90;;;2.58;100.00;100440.81;5076153;28;20240;-71
2023/12/09 05:19:03;;;;;;;23.80;15.13;;;3.70;99.90;;;2.57;100.00;100447.06;5076784;28;20209;-71
2023/12/09 05:21:32;;;;;;;24.87;14.70;;;3.70;99.90;;;2.53;100.00;100449.91;5075957;28;20201;-71
2023/12/09 05:24:04;;;;;;;21.03;14.40;;;3.80;99.90;;;2.51;100.00;100457.13;5075970;28;20213;-71
2023/12/09 05:26:33;;;;;;;19.77;13.70;;;3.60;99.90;;;2.49;100.00;100451.13;5075909;28;20201;-71
2023/12/09 05:29:03;;;;;;;20.23;13.30;;;3.60;99.90;;;2.48;100.00;100449.44;5075926;28;20233;-71
2023/12/09 05:31:31;;;;;;;23.87;15.10;;;3.60;99.90;;;2.45;100.00;100444.41;5075847;28;20300;-71
2023/12/09 05:33:59;;;;;;;22.73;14.53;;;3.60;99.90;;;2.44;100.00;100442.69;5075557;28;20232;-71
2023/12/09 05:36:28;;;;;;;21.87;14.17;;;3.60;99.90;;;2.44;100.00;100439.22;5075849;28;20243;-71
2023/12/09 05:38:56;;;;;;;22.63;14.23;;;3.60;99.90;;;2.42;100.00;100441.97;5075760;28;20205;-71
2023/12/09 05:41:25;;;;;;;26.43;14.90;;;3.60;99.90;;;2.42;100.00;100438.50;5075575;28;20259;-71
2023/12/09 05:43:53;;;;;;;22.17;14.73;;;3.60;99.90;;;2.40;100.00;100435.97;5075588;28;20267;-71
2023/12/09 05:46:22;;;;;;;22.83;14.33;;;3.50;99.90;;;2.40;100.00;100441.25;5075641;28;20304;-71
2023/12/09 05:48:51;;;;;;;22.93;15.47;;;3.50;99.90;;;2.37;100.00;100430.91;5075549;28;20296;-71
2023/12/09 05:51:19;;;;;;;23.97;14.53;;;3.50;99.90;;;2.36;100.00;100429.22;5075533;28;20212;-71
2023/12/09 05:53:48;;;;;;;26.33;15.30;;;3.50;99.90;;;2.35;100.00;100424.06;5075450;28;20208;-71
2023/12/09 05:56:16;;;;;;;19.23;13.37;;;3.50;99.90;;;2.34;100.00;100420.56;5075096;28;20305;-71
2023/12/09 05:58:44;;;;;;;26.10;14.83;;;3.60;99.90;;;2.33;100.00;100428.63;5075373;28;20258;-71
2023/12/09 06:01:12;;;;;;;22.20;15.33;;;3.40;99.90;;;2.30;100.00;100427.03;5074413;28;20742;-71
2023/12/09 06:03:42;;;;;;;24.10;14.43;;;3.40;99.90;;;2.29;100.00;100425.38;5075125;28;20276;-71
2023/12/09 06:06:11;;;;;;;26.80;14.77;;;3.40;99.90;;;2.29;100.00;100433.31;5075203;28;20206;-71
2023/12/09 06:08:39;;;;;;;22.40;13.93;;;3.40;99.90;;;2.28;100.00;100428.97;5075152;28;20205;-71
2023/12/09 06:11:07;;;;;;;22.60;14.37;;;3.50;99.90;;;2.26;100.00;100438.78;5075161;28;20278;-71
2023/12/09 06:13:35;;;;;;;23.57;13.60;;;3.40;99.90;;;2.25;100.00;100447.69;5075012;28;20221;-71
2023/12/09 06:16:04;;;;;;;21.23;13.57;;;3.30;99.90;;;2.24;100.00;100443.34;5075015;28;20237;-71
2023/12/09 06:18:32;;;;;;;23.40;13.77;;;3.30;99.90;;;2.23;100.00;100436.38;5074991;28;20209;-71
2023/12/09 06:21:02;;;;;;;23.97;13.80;;;3.30;99.90;;;2.22;100.00;100429.44;5075235;28;20297;-71
2023/12/09 06:23:31;;;;;;;20.83;13.50;;;3.40;99.90;;;2.21;100.00;100430.38;5074717;28;20229;-71
2023/12/09 06:25:59;;;;;;;20.07;13.07;;;3.30;99.90;;;2.18;100.00;100435.91;5074860;28;20213;-71
2023/12/09 06:28:27;;;;;;;21.40;14.40;;;3.30;99.90;;;2.18;100.00;100435.06;5074817;28;20296;-71
2023/12/09 06:30:55;;;;;;;20.33;13.83;;;3.30;99.90;;;2.16;100.00;100427.22;5074692;28;20331;-71
2023/12/09 06:33:24;;;;;;;21.10;13.23;;;3.30;99.90;;;2.16;100.00;100432.50;5074247;28;20325;-71
2023/12/09 06:35:52;;;;;;;21.13;12.93;;;3.30;99.90;;;2.16;100.00;100431.69;5074323;28;20695;-71
2023/12/09 06:38:21;;;;;;;24.03;13.90;;;3.40;99.90;;;2.15;100.00;100433.50;5074560;28;20233;-71
2023/12/09 06:40:50;;;;;;;23.03;13.63;;;3.30;99.90;;;2.15;100.00;100436.13;5074535;28;20308;-71
2023/12/09 06:43:18;;;;;;;23.67;14.10;;;3.20;99.90;;;2.15;100.00;100420.28;5074414;28;20312;-71
2023/12/09 06:45:46;;;;;;;21.73;14.07;;;3.30;99.90;;;2.14;100.00;100415.94;5074353;28;20312;-71
2023/12/09 06:48:14;;;;;;;24.20;14.13;;;3.30;99.90;;;2.14;100.00;100421.22;5074064;28;20685;-71
2023/12/09 06:50:44;;;;;;;20.33;14.13;;;3.20;99.90;;;2.12;100.00;100428.44;5074182;28;20201;-71
2023/12/09 06:53:13;;;;;;;23.73;14.10;;;3.20;99.90;;;2.11;100.00;100429.38;5074247;28;20379;-71
2023/12/09 06:55:43;;;;;;;24.17;14.40;;;3.20;99.90;;;2.12;100.00;100424.94;5074306;28;20197;-71
2023/12/09 06:58:11;;;;;;;22.10;14.50;;;3.20;99.90;;;2.11;100.00;100431.19;5074432;28;20240;-71
2023/12/09 07:00:39;;;;;;;20.93;14.70;;;3.30;99.90;;;2.10;100.00;100427.69;5074160;28;20201;-72
2023/12/09 07:03:08;;;;;;;22.53;14.97;;;3.20;99.90;;;2.09;100.00;100441.84;5074076;28;20225;-72
2023/12/09 07:05:36;;;;;;;19.97;14.50;;;3.20;99.90;;;2.09;100.00;100436.56;5073996;28;20225;-72
2023/12/09 07:08:05;;;;;;;20.30;14.80;;;3.30;99.90;;;2.09;100.00;100436.56;5073943;28;20233;-72
2023/12/09 07:10:33;;;;;;;21.63;14.53;;;3.20;99.90;;;2.08;100.00;100440.19;5073990;28;20213;-72
2023/12/09 07:13:03;;;;;;;25.67;14.30;;;3.20;99.90;;;2.09;100.00;100430.47;5072740;28;20253;-72
2023/12/09 07:15:31;;;;;;;19.03;14.47;;;3.20;99.90;;;2.07;100.00;100429.72;5073913;28;20292;-72
2023/12/09 07:17:59;;;;;;;23.63;14.70;;;3.20;99.90;;;2.07;100.00;100442.91;5073867;28;20258;-72
2023/12/09 07:20:27;;;;;;;21.03;14.37;;;3.30;99.90;;;2.07;100.00;100442.91;5073815;28;20251;-72
2023/12/09 07:22:56;;;;;;;22.80;14.50;;;3.20;99.90;;;2.08;100.00;100439.34;5073551;28;20694;-71
2023/12/09 07:25:24;;;;;;;19.27;13.80;;;3.20;99.90;;;2.06;100.00;100436.78;5073655;28;20263;-71
2023/12/09 07:27:52;;;;;;;20.13;12.70;;;3.20;99.90;;;2.07;100.00;100432.34;5073710;28;20284;-71
2023/12/09 07:30:22;;;;;;;21.03;13.17;;;3.20;99.90;;;2.05;100.00;100425.38;5073643;28;20209;-71
2023/12/09 07:32:50;;;;;;;18.37;12.87;;;3.30;99.90;;;2.04;100.00;100423.72;5073113;28;20287;-71
2023/12/09 07:35:19;;;;;;;18.97;12.53;;;3.20;99.90;;;2.06;100.00;100418.31;5073361;28;20237;-71
2023/12/09 07:37:47;;;;;;;17.77;13.23;;;3.10;99.90;;;2.06;100.00;100420.94;5073566;28;20214;-71
2023/12/09 07:40:16;;;;;;;21.17;12.63;;;3.20;99.90;;;2.06;100.00;100402.47;5073574;28;20209;-71
2023/12/09 07:42:44;;;;;;;21.27;13.20;;;3.20;99.90;;;2.08;100.00;100411.13;5073427;28;20225;-71
2023/12/09 07:45:12;;;;;;;20.00;12.37;;;3.20;99.90;;;2.08;100.00;100405.00;5073394;28;20232;-71
2023/12/09 07:47:42;;;;;;;19.87;12.70;;;3.20;99.90;;;2.09;100.00;100404.88;5073461;28;20296;-71
2023/12/09 07:50:11;;;;;;;20.07;13.30;;;3.20;99.90;;;2.11;100.00;100399.50;5073413;28;20212;-71
2023/12/09 07:52:40;;;;;;;21.30;13.33;;;3.30;99.90;;;2.12;100.00;100388.84;5073086;28;20594;-71
2023/12/09 07:55:09;;;;;;;18.97;13.63;;;3.30;99.90;;;2.14;100.00;100386.91;5073440;28;20235;-71
2023/12/09 07:57:37;;;;;;;16.47;12.10;;;3.20;99.90;;;2.14;100.00;100392.19;5073325;28;20209;-71
2023/12/09 08:00:07;;;;;;;17.90;12.90;;;3.30;99.90;;;2.15;100.00;100375.41;5073511;28;20209;-71
2023/12/09 08:02:36;;;;;;;19.50;12.03;;;3.20;99.90;;;2.17;100.00;100380.53;5073884;28;20229;-71
2023/12/09 08:05:07;;;;;;;20.87;13.03;;;3.30;99.90;;;2.17;100.00;100368.19;5073222;28;20336;-71
2023/12/09 08:07:35;;;;;;;17.70;12.97;;;3.30;99.90;;;2.20;100.00;100383.78;5073055;28;20643;-71
2023/12/09 08:10:04;;;;;;;17.33;13.07;;;3.40;99.90;;;2.21;100.00;100372.28;5073029;28;20216;-71
2023/12/09 08:12:32;;;;;;;19.63;12.73;;;3.30;99.90;;;2.22;100.00;100367.84;5073207;28;20316;-71
2023/12/09 08:15:00;;;;;;;24.37;15.03;;;3.40;99.90;;;2.22;100.00;100357.28;5073263;28;20205;-71
2023/12/09 08:17:28;;;;;;;23.17;12.63;;;3.40;99.90;;;2.24;100.00;100360.63;5073235;28;20212;-71
2023/12/09 08:19:57;;;;;;;18.30;12.57;;;3.40;99.90;;;2.26;100.00;100367.47;5072853;28;20284;-71
2023/12/09 08:22:27;;;;;;;20.47;12.23;;;3.40;99.90;;;2.28;100.00;100378.78;5073045;28;20316;-71
2023/12/09 08:24:55;;;;;;;21.83;12.83;;;3.60;99.90;;;2.31;100.00;100372.41;5076923;28;20232;-71
2023/12/09 08:27:24;;;;;;;16.90;11.97;;;3.40;99.90;;;2.28;100.00;100368.22;5077100;28;20300;-71
2023/12/09 08:29:53;;;;;;;21.10;12.20;;;3.40;99.90;;;2.30;100.00;100381.28;5077072;28;20213;-71
2023/12/09 08:32:21;;;;;;;20.53;11.47;;;3.40;99.90;;;2.31;100.00;100380.34;5076767;28;20319;-71
2023/12/09 08:34:49;;;;;;;18.80;12.37;;;3.50;99.90;;;2.34;100.00;100382.75;5076639;28;20675;-71
2023/12/09 08:37:35;;;;;;;22.33;12.70;;;3.50;99.90;;;2.35;100.00;100381.81;5076970;28;20281;-71
2023/12/09 08:40:10;;;;;;;20.57;12.83;;;3.50;99.90;;;2.34;100.00;100383.59;5076546;28;20205;-71
2023/12/09 08:42:40;;;;;;;19.23;12.33;;;3.40;99.90;;;2.36;100.00;100380.84;5076772;28;20229;-71
2023/12/09 08:45:10;;;;;;;18.90;12.60;;;3.50;99.90;;;2.39;100.00;100383.25;5076661;28;20229;-71
2023/12/09 08:47:39;;;;;;;19.33;11.97;;;3.50;99.90;;;2.44;100.00;100381.09;5076367;28;20636;-71
2023/12/09 08:50:12;;;;;;;22.03;12.77;;;3.60;99.90;;;2.49;100.00;100382.44;5076755;28;20197;-71
2023/12/09 08:52:45;;;;;;;20.90;11.93;;;3.70;99.90;;;2.46;100.00;100382.69;5076264;28;20596;-71
2023/12/09 08:55:13;;;;;;;22.40;11.73;;;3.80;99.90;;;2.54;100.00;100382.91;5076703;28;20288;-71
2023/12/09 08:57:41;;;;;;;20.67;12.57;;;3.70;99.90;;;2.58;100.00;100372.09;5076643;28;20209;-71
2023/12/09 09:00:11;;;;;;;20.70;12.13;;;3.90;99.90;;;2.60;100.00;100370.19;5076447;28;20216;-71
2023/12/09 09:02:39;;;;;;;19.73;11.90;;;3.70;99.90;;;2.57;100.00;100370.44;5076343;28;20231;-71
2023/12/09 09:05:10;;;;;;;19.00;11.70;;;3.80;99.90;;;2.64;100.00;100369.81;5075947;28;20771;-71
2023/12/09 09:07:40;;;;;;;18.57;12.53;;;3.60;99.90;;;2.72;100.00;100371.88;5076279;28;20205;-72
2023/12/09 09:10:10;;;;;;;23.97;12.73;;;3.90;99.90;;;2.75;100.00;100371.63;5077422;28;20258;-72
2023/12/09 09:12:38;;;;;;;21.10;12.17;;;3.90;99.90;;;2.74;100.00;100364.69;5076255;28;20229;-72
2023/12/09 09:15:08;;;;;;;18.13;11.40;;;4.00;99.90;;;2.76;100.00;100365.41;5076306;28;20212;-72
2023/12/09 09:17:37;;;;;;;18.57;12.40;;;3.90;99.90;;;2.74;100.00;100365.50;5076175;28;20709;-72
2023/12/09 09:20:07;;;;;;;19.20;12.20;;;4.00;99.90;;;2.82;100.00;100365.75;5076042;28;20262;-72
2023/12/09 09:22:36;;;;;;;18.37;12.67;;;3.90;99.90;;;2.82;100.00;100363.09;5075729;28;20602;-72
2023/12/09 09:25:05;;;;;;;21.10;11.97;;;4.00;99.90;;;2.83;100.00;100356.03;5076198;28;20212;-72
2023/12/09 09:27:35;;;;;;;14.10;10.30;;;4.00;99.90;;;2.83;100.00;100356.03;5076092;28;20284;-72
2023/12/09 09:30:03;;;;;;;20.97;11.13;;;4.10;99.90;;;2.83;100.00;100358.66;5076138;28;20216;-72
2023/12/09 09:32:32;;;;;;;20.93;10.37;;;3.70;99.90;;;2.83;100.00;100358.66;5075766;28;20265;-72
2023/12/09 09:35:01;;;;;;;19.20;12.43;;;4.00;99.90;;;2.95;100.00;100362.97;5074951;28;20206;-72
2023/12/09 09:37:29;;;;;;;16.90;10.60;;;4.30;99.90;;;2.92;100.00;100357.94;5076074;28;20237;-72
2023/12/09 09:39:57;;;;;;;20.60;10.20;;;4.10;99.90;;;2.96;100.00;100348.81;5075910;28;20284;-72
2023/12/09 09:42:34;;;;;;;15.47;10.70;;;4.20;99.90;;;2.96;100.00;100347.00;5075747;28;20229;-72
2023/12/09 09:45:18;;;;;;;16.77;10.50;;;4.20;99.90;;;3.00;100.00;100344.97;5075861;28;20193;-72
2023/12/09 09:47:48;;;;;;;15.77;9.70;;;4.20;99.90;;;3.02;100.00;100343.03;5075853;28;20193;-72
2023/12/09 09:50:21;;;;;;;19.97;10.13;;;4.30;99.90;;;3.08;100.00;100337.25;5075703;28;20190;-72
2023/12/09 09:52:51;;;;;;;18.27;10.63;;;4.20;99.90;;;3.28;100.00;100336.50;5075152;28;20225;-72
2023/12/09 09:55:22;;;;;;;15.80;10.50;;;4.40;99.90;;;3.26;100.00;100330.47;5075606;28;20206;-72
2023/12/09 09:57:51;;;;;;;21.90;11.53;;;4.50;99.90;;;3.35;100.00;100332.41;5075526;28;20204;-72
2023/12/09 10:00:22;;;;;;;17.20;10.70;;;4.70;99.90;;;3.38;100.00;100324.22;5075500;28;20288;-72
2023/12/09 10:02:51;;;;;;;18.40;10.67;;;4.60;99.90;;;3.37;100.00;100321.66;5075412;28;20332;-72
2023/12/09 10:05:24;;;;;;;17.63;11.13;;;4.60;99.90;;;3.33;100.00;100314.94;5075447;28;20201;-72
2023/12/09 10:07:53;;;;;;;18.43;10.60;;;4.50;99.90;;;3.31;100.00;100307.16;5075278;28;20252;-72
2023/12/09 10:10:21;;;;;;;16.80;10.77;;;4.50;99.90;;;3.32;100.00;100298.22;5075170;28;20255;-72
2023/12/09 10:12:50;;;;;;;19.37;10.60;;;4.60;99.90;;;3.32;100.00;100292.13;5075291;28;20225;-72
2023/12/09 10:15:18;;;;;;;19.77;11.00;;;4.50;99.90;;;3.31;100.00;100287.78;5075172;28;20213;-72